sensor_id;sensor_type;location;lat;lon;timestamp;temperature;humidity
20740;DHT22;10530;49.968;19.844;2022-12-29T00:01:21;2.30;99.90
20740;DHT22;10530;49.968;19.844;2022-12-29T00:06:24;2.20;99.90
20740;DHT22;10530;49.968;19.844;2022-12-29T00:11:27;1.80;99.90
20740;DHT22;10530;49.968;19.844;2022-12-29T00:16:31;1.60;99.90
20740;DHT22;10530;49.968;19.844;2022-12-29T00:21:34;1.50;99.90
20740;DHT22;10530;49.968;19.844;2022-12-29T00:27:08;1.50;99.90
20740;DHT22;10530;49.968;19.844;2022-12-29T00:32:30;1.50;99.90
20740;DHT22;10530;49.968;19.844;2022-12-29T00:37:52;1.60;99.90
20740;DHT22;10530;49.968;19.844;2022-12-29T00:43:35;1.70;99.90
20740;DHT22;10530;49.968;19.844;2022-12-29T00:48:57;1.80;99.90
20740;DHT22;10530;49.968;19.844;2022-12-29T00:54:19;1.60;99.90
20740;DHT22;10530;49.968;19.844;2022-12-29T00:59:22;1.90;99.90
20740;DHT22;10530;49.968;19.844;2022-12-29T01:04:26;1.90;99.90
20740;DHT22;10530;49.968;19.844;2022-12-29T01:09:29;1.90;99.90
20740;DHT22;10530;49.968;19.844;2022-12-29T01:14:50;1.90;99.90
20740;DHT22;10530;49.968;19.844;2022-12-29T01:19:54;1.90;99.90
20740;DHT22;10530;49.968;19.844;2022-12-29T01:24:57;2.20;99.90
20740;DHT22;10530;49.968;19.844;2022-12-29T01:30:00;2.10;99.90
20740;DHT22;10530;49.968;19.844;2022-12-29T01:35:03;2.20;99.90
20740;DHT22;10530;49.968;19.844;2022-12-29T01:40:09;2.30;99.90
20740;DHT22;10530;49.968;19.844;2022-12-29T01:45:17;2.60;99.90
20740;DHT22;10530;49.968;19.844;2022-12-29T01:50:38;2.70;99.90
20740;DHT22;10530;49.968;19.844;2022-12-29T01:56:09;2.70;99.90
20740;DHT22;10530;49.968;19.844;2022-12-29T02:01:14;2.60;99.90
20740;DHT22;10530;49.968;19.844;2022-12-29T02:06:26;2.30;99.90
20740;DHT22;10530;49.968;19.844;2022-12-29T02:11:31;2.40;99.90
20740;DHT22;10530;49.968;19.844;2022-12-29T02:49:12;3.60;99.90
20740;DHT22;10530;49.968;19.844;2022-12-29T02:54:19;3.70;99.90
20740;DHT22;10530;49.968;19.844;2022-12-29T02:59:44;4.40;99.90
20740;DHT22;10530;49.968;19.844;2022-12-29T03:10:45;4.70;99.90
20740;DHT22;10530;49.968;19.844;2022-12-29T03:21:20;4.70;99.90
20740;DHT22;10530;49.968;19.844;2022-12-29T03:26:48;4.60;99.90
20740;DHT22;10530;49.968;19.844;2022-12-29T03:31:54;4.70;99.90
20740;DHT22;10530;49.968;19.844;2022-12-29T03:37:05;4.70;99.90
20740;DHT22;10530;49.968;19.844;2022-12-29T03:42:13;4.60;99.90
20740;DHT22;10530;49.968;19.844;2022-12-29T03:47:17;4.40;99.90
20740;DHT22;10530;49.968;19.844;2022-12-29T03:52:21;4.10;99.90
20740;DHT22;10530;49.968;19.844;2022-12-29T03:57:26;4.00;99.90
20740;DHT22;10530;49.968;19.844;2022-12-29T04:02:35;3.80;99.90
20740;DHT22;10530;49.968;19.844;2022-12-29T04:07:39;3.70;99.90
20740;DHT22;10530;49.968;19.844;2022-12-29T04:12:42;3.80;99.90
20740;DHT22;10530;49.968;19.844;2022-12-29T04:17:46;3.70;99.90
20740;DHT22;10530;49.968;19.844;2022-12-29T04:22:48;3.60;99.90
20740;DHT22;10530;49.968;19.844;2022-12-29T04:27:52;3.60;99.90
20740;DHT22;10530;49.968;19.844;2022-12-29T04:33:15;3.80;99.90
20740;DHT22;10530;49.968;19.844;2022-12-29T04:38:22;3.70;99.90
20740;DHT22;10530;49.968;19.844;2022-12-29T04:43:25;3.80;99.90
20740;DHT22;10530;49.968;19.844;2022-12-29T04:48:51;4.10;99.90
20740;DHT22;10530;49.968;19.844;2022-12-29T04:54:04;4.30;99.90
20740;DHT22;10530;49.968;19.844;2022-12-29T04:59:07;4.40;99.90
20740;DHT22;10530;49.968;19.844;2022-12-29T05:04:10;4.40;99.90
20740;DHT22;10530;49.968;19.844;2022-12-29T05:09:12;4.40;99.90
20740;DHT22;10530;49.968;19.844;2022-12-29T05:14:15;4.40;99.90
20740;DHT22;10530;49.968;19.844;2022-12-29T05:19:20;4.40;99.90
20740;DHT22;10530;49.968;19.844;2022-12-29T05:24:23;4.50;99.90
20740;DHT22;10530;49.968;19.844;2022-12-29T05:29:29;4.50;99.90
20740;DHT22;10530;49.968;19.844;2022-12-29T05:34:32;4.50;99.90
20740;DHT22;10530;49.968;19.844;2022-12-29T05:39:35;4.50;99.90
20740;DHT22;10530;49.968;19.844;2022-12-29T05:44:40;4.80;99.90
20740;DHT22;10530;49.968;19.844;2022-12-29T05:49:55;5.10;99.90
20740;DHT22;10530;49.968;19.844;2022-12-29T05:55:27;5.20;99.90
20740;DHT22;10530;49.968;19.844;2022-12-29T06:00:30;4.70;99.90
20740;DHT22;10530;49.968;19.844;2022-12-29T06:05:33;4.40;99.90
20740;DHT22;10530;49.968;19.844;2022-12-29T06:10:36;4.30;99.90
20740;DHT22;10530;49.968;19.844;2022-12-29T06:15:40;3.70;99.90
20740;DHT22;10530;49.968;19.844;2022-12-29T06:20:43;4.10;99.90
20740;DHT22;10530;49.968;19.844;2022-12-29T06:25:47;4.50;99.90
20740;DHT22;10530;49.968;19.844;2022-12-29T06:30:51;4.90;99.90
20740;DHT22;10530;49.968;19.844;2022-12-29T06:35:54;5.20;99.90
20740;DHT22;10530;49.968;19.844;2022-12-29T06:40:57;5.20;99.90
20740;DHT22;10530;49.968;19.844;2022-12-29T06:46:09;5.00;99.90
20740;DHT22;10530;49.968;19.844;2022-12-29T06:51:12;5.10;99.90
20740;DHT22;10530;49.968;19.844;2022-12-29T06:56:15;5.30;99.90
20740;DHT22;10530;49.968;19.844;2022-12-29T07:01:18;5.50;99.90
20740;DHT22;10530;49.968;19.844;2022-12-29T07:06:21;5.50;99.90
20740;DHT22;10530;49.968;19.844;2022-12-29T07:11:24;5.40;99.90
20740;DHT22;10530;49.968;19.844;2022-12-29T07:16:27;5.20;99.90
20740;DHT22;10530;49.968;19.844;2022-12-29T07:21:31;5.20;99.90
20740;DHT22;10530;49.968;19.844;2022-12-29T07:26:34;5.40;99.90
20740;DHT22;10530;49.968;19.844;2022-12-29T07:31:38;5.50;99.90
20740;DHT22;10530;49.968;19.844;2022-12-29T07:36:41;5.40;99.90
20740;DHT22;10530;49.968;19.844;2022-12-29T07:41:44;5.30;99.90
20740;DHT22;10530;49.968;19.844;2022-12-29T07:46:52;5.10;99.90
20740;DHT22;10530;49.968;19.844;2022-12-29T07:52:00;5.70;99.90
20740;DHT22;10530;49.968;19.844;2022-12-29T07:57:04;5.30;99.90
20740;DHT22;10530;49.968;19.844;2022-12-29T08:02:10;5.40;99.90
20740;DHT22;10530;49.968;19.844;2022-12-29T08:07:13;5.70;99.90
20740;DHT22;10530;49.968;19.844;2022-12-29T08:12:16;5.80;99.90
20740;DHT22;10530;49.968;19.844;2022-12-29T08:17:20;6.00;99.90
20740;DHT22;10530;49.968;19.844;2022-12-29T08:22:23;6.10;99.90
20740;DHT22;10530;49.968;19.844;2022-12-29T08:27:26;6.20;99.90
20740;DHT22;10530;49.968;19.844;2022-12-29T08:32:29;6.00;99.90
20740;DHT22;10530;49.968;19.844;2022-12-29T08:37:33;6.00;99.90
20740;DHT22;10530;49.968;19.844;2022-12-29T08:42:36;6.20;99.90
20740;DHT22;10530;49.968;19.844;2022-12-29T08:47:38;6.40;99.90
20740;DHT22;10530;49.968;19.844;2022-12-29T08:52:41;6.80;99.90
20740;DHT22;10530;49.968;19.844;2022-12-29T08:57:44;6.70;99.90
20740;DHT22;10530;49.968;19.844;2022-12-29T09:02:51;6.90;99.90
20740;DHT22;10530;49.968;19.844;2022-12-29T09:07:54;7.90;99.90
20740;DHT22;10530;49.968;19.844;2022-12-29T09:12:57;9.70;91.50
20740;DHT22;10530;49.968;19.844;2022-12-29T09:18:00;10.90;88.70
20740;DHT22;10530;49.968;19.844;2022-12-29T09:23:04;13.50;55.60
20740;DHT22;10530;49.968;19.844;2022-12-29T09:28:08;16.40;43.20
20740;DHT22;10530;49.968;19.844;2022-12-29T09:33:11;18.70;31.50
20740;DHT22;10530;49.968;19.844;2022-12-29T09:38:14;19.10;25.30
20740;DHT22;10530;49.968;19.844;2022-12-29T09:49:21;13.70;29.70
20740;DHT22;10530;49.968;19.844;2022-12-29T09:59:40;17.20;24.90
20740;DHT22;10530;49.968;19.844;2022-12-29T10:04:44;19.20;20.50
20740;DHT22;10530;49.968;19.844;2022-12-29T10:15:18;16.00;24.90
20740;DHT22;10530;49.968;19.844;2022-12-29T10:26:04;16.80;24.60
20740;DHT22;10530;49.968;19.844;2022-12-29T10:31:18;18.80;22.40
20740;DHT22;10530;49.968;19.844;2022-12-29T10:36:39;17.30;21.60
20740;DHT22;10530;49.968;19.844;2022-12-29T10:42:14;18.20;22.40
20740;DHT22;10530;49.968;19.844;2022-12-29T10:47:23;19.80;20.80
20740;DHT22;10530;49.968;19.844;2022-12-29T10:52:28;19.20;20.20
20740;DHT22;10530;49.968;19.844;2022-12-29T10:57:39;21.90;17.30
20740;DHT22;10530;49.968;19.844;2022-12-29T11:08:18;13.70;28.30
20740;DHT22;10530;49.968;19.844;2022-12-29T11:13:30;13.50;31.30
20740;DHT22;10530;49.968;19.844;2022-12-29T11:18:40;13.40;33.00
20740;DHT22;10530;49.968;19.844;2022-12-29T11:23:56;13.40;33.30
20740;DHT22;10530;49.968;19.844;2022-12-29T11:29:21;13.50;33.40
20740;DHT22;10530;49.968;19.844;2022-12-29T11:34:32;12.80;36.10
20740;DHT22;10530;49.968;19.844;2022-12-29T11:44:46;16.10;30.40
20740;DHT22;10530;49.968;19.844;2022-12-29T11:49:51;15.80;29.50
20740;DHT22;10530;49.968;19.844;2022-12-29T11:54:56;13.90;33.40
20740;DHT22;10530;49.968;19.844;2022-12-29T12:00:09;13.40;35.40
20740;DHT22;10530;49.968;19.844;2022-12-29T12:11:26;13.20;37.80
20740;DHT22;10530;49.968;19.844;2022-12-29T12:16:08;12.70;39.60
20740;DHT22;10530;49.968;19.844;2022-12-29T12:21:46;12.40;40.90
20740;DHT22;10530;49.968;19.844;2022-12-29T12:32:04;12.40;43.00
20740;DHT22;10530;49.968;19.844;2022-12-29T13:00:01;12.00;47.20
20740;DHT22;10530;49.968;19.844;2022-12-29T13:10:36;12.00;48.80
20740;DHT22;10530;49.968;19.844;2022-12-29T13:15:50;12.10;48.00
20740;DHT22;10530;49.968;19.844;2022-12-29T13:21:06;12.00;48.50
20740;DHT22;10530;49.968;19.844;2022-12-29T13:26:19;11.90;48.70
20740;DHT22;10530;49.968;19.844;2022-12-29T13:37:00;11.90;48.90
20740;DHT22;10530;49.968;19.844;2022-12-29T13:42:05;11.90;49.10
20740;DHT22;10530;49.968;19.844;2022-12-29T13:53:19;11.70;49.90
20740;DHT22;10530;49.968;19.844;2022-12-29T13:58:37;11.60;50.30
20740;DHT22;10530;49.968;19.844;2022-12-29T14:03:49;11.50;51.30
20740;DHT22;10530;49.968;19.844;2022-12-29T14:09:01;11.30;51.60
20740;DHT22;10530;49.968;19.844;2022-12-29T14:14:16;11.10;53.10
20740;DHT22;10530;49.968;19.844;2022-12-29T14:19:26;11.20;53.00
20740;DHT22;10530;49.968;19.844;2022-12-29T14:34:43;10.90;55.30
20740;DHT22;10530;49.968;19.844;2022-12-29T14:45:31;10.80;55.70
20740;DHT22;10530;49.968;19.844;2022-12-29T14:50:42;10.60;57.40
20740;DHT22;10530;49.968;19.844;2022-12-29T14:56:03;10.50;57.70
20740;DHT22;10530;49.968;19.844;2022-12-29T15:06:36;10.30;60.00
20740;DHT22;10530;49.968;19.844;2022-12-29T15:16:42;9.70;70.00
20740;DHT22;10530;49.968;19.844;2022-12-29T15:21:46;9.50;74.90
20740;DHT22;10530;49.968;19.844;2022-12-29T15:26:51;9.20;80.00
20740;DHT22;10530;49.968;19.844;2022-12-29T15:31:55;9.30;79.90
20740;DHT22;10530;49.968;19.844;2022-12-29T15:36:58;9.50;77.20
20740;DHT22;10530;49.968;19.844;2022-12-29T15:42:07;9.20;82.00
20740;DHT22;10530;49.968;19.844;2022-12-29T15:47:21;9.00;83.50
20740;DHT22;10530;49.968;19.844;2022-12-29T15:52:32;8.60;90.60
20740;DHT22;10530;49.968;19.844;2022-12-29T15:57:42;8.30;93.50
20740;DHT22;10530;49.968;19.844;2022-12-29T16:02:45;8.20;95.70
20740;DHT22;10530;49.968;19.844;2022-12-29T16:07:56;8.50;94.00
20740;DHT22;10530;49.968;19.844;2022-12-29T16:13:24;8.60;93.30
20740;DHT22;10530;49.968;19.844;2022-12-29T16:18:30;8.70;93.50
20740;DHT22;10530;49.968;19.844;2022-12-29T16:23:37;8.60;94.30
20740;DHT22;10530;49.968;19.844;2022-12-29T16:28:41;8.70;94.00
20740;DHT22;10530;49.968;19.844;2022-12-29T16:33:52;8.70;94.40
20740;DHT22;10530;49.968;19.844;2022-12-29T16:44:29;8.80;94.00
20740;DHT22;10530;49.968;19.844;2022-12-29T16:49:33;8.60;95.40
20740;DHT22;10530;49.968;19.844;2022-12-29T16:54:37;8.60;96.10
20740;DHT22;10530;49.968;19.844;2022-12-29T16:59:41;8.70;96.20
20740;DHT22;10530;49.968;19.844;2022-12-29T17:04:45;8.60;97.10
20740;DHT22;10530;49.968;19.844;2022-12-29T17:09:51;8.50;97.80
20740;DHT22;10530;49.968;19.844;2022-12-29T17:14:58;8.40;98.80
20740;DHT22;10530;49.968;19.844;2022-12-29T17:25:26;8.20;99.90
20740;DHT22;10530;49.968;19.844;2022-12-29T17:30:33;7.80;99.90
20740;DHT22;10530;49.968;19.844;2022-12-29T17:35:37;7.60;99.90
20740;DHT22;10530;49.968;19.844;2022-12-29T17:40:40;7.60;99.90
20740;DHT22;10530;49.968;19.844;2022-12-29T17:45:44;7.20;99.90
20740;DHT22;10530;49.968;19.844;2022-12-29T17:50:50;7.30;99.90
20740;DHT22;10530;49.968;19.844;2022-12-29T17:55:53;7.30;99.90
20740;DHT22;10530;49.968;19.844;2022-12-29T18:00:58;7.00;99.90
20740;DHT22;10530;49.968;19.844;2022-12-29T18:06:02;6.80;99.90
20740;DHT22;10530;49.968;19.844;2022-12-29T18:11:24;6.90;99.90
20740;DHT22;10530;49.968;19.844;2022-12-29T18:16:28;6.70;99.90
20740;DHT22;10530;49.968;19.844;2022-12-29T18:21:31;6.10;99.90
20740;DHT22;10530;49.968;19.844;2022-12-29T18:26:34;5.80;99.90
20740;DHT22;10530;49.968;19.844;2022-12-29T18:31:39;5.80;99.90
20740;DHT22;10530;49.968;19.844;2022-12-29T18:36:42;6.30;99.90
20740;DHT22;10530;49.968;19.844;2022-12-29T18:41:45;6.30;99.90
20740;DHT22;10530;49.968;19.844;2022-12-29T18:46:48;6.70;99.90
20740;DHT22;10530;49.968;19.844;2022-12-29T18:51:51;6.40;99.90
20740;DHT22;10530;49.968;19.844;2022-12-29T18:56:54;6.60;99.90
20740;DHT22;10530;49.968;19.844;2022-12-29T19:01:57;6.80;99.90
20740;DHT22;10530;49.968;19.844;2022-12-29T19:07:00;6.60;99.90
20740;DHT22;10530;49.968;19.844;2022-12-29T19:12:03;6.30;99.90
20740;DHT22;10530;49.968;19.844;2022-12-29T19:17:16;6.50;99.90
20740;DHT22;10530;49.968;19.844;2022-12-29T19:22:19;6.40;99.90
20740;DHT22;10530;49.968;19.844;2022-12-29T19:27:21;6.30;99.90
20740;DHT22;10530;49.968;19.844;2022-12-29T19:32:24;6.70;99.90
20740;DHT22;10530;49.968;19.844;2022-12-29T19:37:28;7.00;99.90
20740;DHT22;10530;49.968;19.844;2022-12-29T19:42:30;7.20;99.90
20740;DHT22;10530;49.968;19.844;2022-12-29T19:47:34;7.50;99.90
20740;DHT22;10530;49.968;19.844;2022-12-29T19:52:37;7.70;99.90
20740;DHT22;10530;49.968;19.844;2022-12-29T19:57:40;7.70;99.90
20740;DHT22;10530;49.968;19.844;2022-12-29T20:02:43;8.20;99.90
20740;DHT22;10530;49.968;19.844;2022-12-29T20:07:46;8.20;99.90
20740;DHT22;10530;49.968;19.844;2022-12-29T20:12:49;8.30;99.90
20740;DHT22;10530;49.968;19.844;2022-12-29T20:17:52;8.60;99.90
20740;DHT22;10530;49.968;19.844;2022-12-29T20:23:14;8.70;99.90
20740;DHT22;10530;49.968;19.844;2022-12-29T20:28:17;8.50;99.90
20740;DHT22;10530;49.968;19.844;2022-12-29T20:33:20;8.40;99.90
20740;DHT22;10530;49.968;19.844;2022-12-29T20:38:23;8.70;99.90
20740;DHT22;10530;49.968;19.844;2022-12-29T20:43:26;8.70;99.90
20740;DHT22;10530;49.968;19.844;2022-12-29T20:48:29;8.80;99.90
20740;DHT22;10530;49.968;19.844;2022-12-29T20:53:33;8.80;99.90
20740;DHT22;10530;49.968;19.844;2022-12-29T20:58:37;8.70;99.90
20740;DHT22;10530;49.968;19.844;2022-12-29T21:04:00;8.70;99.90
20740;DHT22;10530;49.968;19.844;2022-12-29T21:09:04;8.70;99.90
20740;DHT22;10530;49.968;19.844;2022-12-29T21:14:07;8.60;99.90
20740;DHT22;10530;49.968;19.844;2022-12-29T21:19:10;8.70;99.90
20740;DHT22;10530;49.968;19.844;2022-12-29T21:24:14;8.50;99.90
20740;DHT22;10530;49.968;19.844;2022-12-29T21:29:17;8.40;99.90
20740;DHT22;10530;49.968;19.844;2022-12-29T21:34:20;8.40;99.90
20740;DHT22;10530;49.968;19.844;2022-12-29T21:39:23;8.50;99.90
20740;DHT22;10530;49.968;19.844;2022-12-29T21:44:26;8.40;99.90
20740;DHT22;10530;49.968;19.844;2022-12-29T21:49:48;8.50;99.90
20740;DHT22;10530;49.968;19.844;2022-12-29T21:54:51;8.40;99.90
20740;DHT22;10530;49.968;19.844;2022-12-29T22:00:07;8.50;99.90
20740;DHT22;10530;49.968;19.844;2022-12-29T22:05:29;8.50;99.90
20740;DHT22;10530;49.968;19.844;2022-12-29T22:10:50;8.40;99.90
20740;DHT22;10530;49.968;19.844;2022-12-29T22:16:11;8.40;99.90
20740;DHT22;10530;49.968;19.844;2022-12-29T22:21:14;8.50;99.90
20740;DHT22;10530;49.968;19.844;2022-12-29T22:26:17;8.50;99.90
20740;DHT22;10530;49.968;19.844;2022-12-29T22:31:29;8.50;99.90
20740;DHT22;10530;49.968;19.844;2022-12-29T22:36:34;8.50;99.90
20740;DHT22;10530;49.968;19.844;2022-12-29T22:41:36;8.40;99.90
20740;DHT22;10530;49.968;19.844;2022-12-29T22:46:39;8.30;99.90
20740;DHT22;10530;49.968;19.844;2022-12-29T22:51:42;8.20;99.90
20740;DHT22;10530;49.968;19.844;2022-12-29T22:56:45;8.00;99.90
20740;DHT22;10530;49.968;19.844;2022-12-29T23:01:48;7.80;99.90
20740;DHT22;10530;49.968;19.844;2022-12-29T23:06:51;7.40;99.90
20740;DHT22;10530;49.968;19.844;2022-12-29T23:11:54;7.70;99.90
20740;DHT22;10530;49.968;19.844;2022-12-29T23:16:57;7.50;99.90
20740;DHT22;10530;49.968;19.844;2022-12-29T23:22:00;7.70;99.90
20740;DHT22;10530;49.968;19.844;2022-12-29T23:27:03;7.80;99.90
20740;DHT22;10530;49.968;19.844;2022-12-29T23:32:05;7.80;99.90
20740;DHT22;10530;49.968;19.844;2022-12-29T23:37:08;7.70;99.90
20740;DHT22;10530;49.968;19.844;2022-12-29T23:42:11;8.00;99.90
20740;DHT22;10530;49.968;19.844;2022-12-29T23:47:14;7.90;99.90
20740;DHT22;10530;49.968;19.844;2022-12-29T23:52:17;7.90;99.90
20740;DHT22;10530;49.968;19.844;2022-12-29T23:57:19;8.10;99.90
